Time;durP1;ratioP1;P1;durP2;ratioP2;P2;SDS_P1;SDS_P2;PMS_P1;PMS_P2;Temp;Humidity;BMP_temperature;BMP_pressure;BME280_temperature;BME280_humidity;BME280_pressure;Samples;Min_cycle;Max_cycle;Signal;HPM_P1;HPM_P2
2023/01/07 00:01:16;;;;;;;;;4.00;4.00;;;;;-146.44;100.00;58906.56;5016135;28;45643;-54
2023/01/07 00:03:42;;;;;;;;;4.00;3.00;;;;;-146.44;100.00;58906.56;5016782;28;45438;-58
2023/01/07 00:06:20;;;;;;;;;5.00;4.33;;;;;-146.44;100.00;58906.56;5015397;28;45312;-57
2023/01/07 00:08:48;;;;;;;;;3.00;3.00;;;;;-146.44;100.00;58906.56;5016915;28;45525;-57
2023/01/07 00:11:20;;;;;;;;;4.33;4.33;;;;;-146.44;100.00;58906.56;5017818;28;45642;-54
2023/01/07 00:13:47;;;;;;;;;3.67;3.67;;;;;-146.44;100.00;58906.56;5015539;28;46411;-53
2023/01/07 00:16:15;;;;;;;;;4.33;4.00;;;;;-146.44;100.00;58906.56;5016377;28;45486;-57
2023/01/07 00:18:41;;;;;;;;;3.67;3.67;;;;;-146.44;100.00;58906.56;5017904;28;45308;-56
2023/01/07 00:21:10;;;;;;;;;5.67;3.00;;;;;-146.44;100.00;58906.56;5016321;28;45723;-55
2023/01/07 00:23:37;;;;;;;;;3.33;3.33;;;;;-146.44;100.00;58906.56;5016798;28;45580;-57
2023/01/07 00:26:09;;;;;;;;;3.33;3.33;;;;;-146.44;100.00;58906.56;5016632;28;45427;-52
2023/01/07 00:28:37;;;;;;;;;3.00;3.00;;;;;-146.44;100.00;58906.56;5017623;28;45477;-54
2023/01/07 00:31:09;;;;;;;;;3.00;3.00;;;;;-146.44;100.00;58906.56;5015236;28;45640;-56
2023/01/07 00:33:34;;;;;;;;;2.67;2.00;;;;;-146.44;100.00;58906.56;5016287;28;46164;-54
2023/01/07 00:36:04;;;;;;;;;4.67;4.67;;;;;-146.44;100.00;58906.56;5016805;28;45399;-50
2023/01/07 00:38:30;;;;;;;;;5.33;3.00;;;;;-146.44;100.00;58906.56;5016916;28;45719;-56
2023/01/07 00:40:55;;;;;;;;;4.33;3.00;;;;;-146.44;100.00;58906.56;5017276;28;45400;-55
2023/01/07 00:43:21;;;;;;;;;3.00;3.00;;;;;-146.44;100.00;58906.56;5013368;28;45592;-57
2023/01/07 00:45:46;;;;;;;;;3.67;2.00;;;;;-146.44;100.00;58906.56;5016896;28;45529;-55
2023/01/07 00:48:11;;;;;;;;;4.00;2.67;;;;;-146.44;100.00;58906.56;5016771;28;45462;-55
2023/01/07 00:50:38;;;;;;;;;3.67;3.67;;;;;-146.44;100.00;58906.56;5017378;28;45593;-52
2023/01/07 00:53:04;;;;;;;;;2.33;2.00;;;;;-146.44;100.00;58906.56;5015041;28;46253;-52
2023/01/07 00:55:30;;;;;;;;;3.00;3.00;;;;;-146.44;100.00;58906.56;5016271;28;45352;-56
2023/01/07 00:57:56;;;;;;;;;2.00;2.00;;;;;-146.44;100.00;58906.56;5017114;28;45457;-53
2023/01/07 01:00:23;;;;;;;;;3.67;3.67;;;;;-146.44;100.00;58906.56;5015298;28;45438;-55
2023/01/07 01:02:50;;;;;;;;;4.00;4.00;;;;;-146.44;100.00;58906.56;5016326;28;46322;-52
2023/01/07 01:05:15;;;;;;;;;4.67;3.67;;;;;-146.44;100.00;58906.56;5013566;28;45515;-54
2023/01/07 01:07:41;;;;;;;;;4.00;3.33;;;;;-146.44;100.00;58906.56;5016864;28;45381;-55
2023/01/07 01:10:10;;;;;;;;;3.00;3.00;;;;;-146.44;100.00;58906.56;5015791;28;45343;-58
2023/01/07 01:12:36;;;;;;;;;3.67;2.33;;;;;-146.44;100.00;58906.56;5003197;28;45502;-57
2023/01/07 01:15:07;;;;;;;;;2.33;2.00;;;;;-146.44;100.00;58906.56;5016404;28;45423;-56
2023/01/07 01:17:33;;;;;;;;;3.00;3.00;;;;;-146.44;100.00;58906.56;5003428;28;45379;-54
2023/01/07 01:19:58;;;;;;;;;5.00;3.00;;;;;-146.44;100.00;58906.56;5016153;28;45529;-55
2023/01/07 01:22:23;;;;;;;;;2.67;2.67;;;;;-146.44;100.00;58906.56;5015745;28;48930;-55
2023/01/07 01:24:50;;;;;;;;;2.00;2.00;;;;;-146.44;100.00;58906.56;5016041;28;45498;-55
2023/01/07 01:27:17;;;;;;;;;3.00;3.00;;;;;-146.44;100.00;58906.56;5015593;28;45450;-57
2023/01/07 01:29:42;;;;;;;;;3.00;3.00;;;;;-146.44;100.00;58906.56;5016681;28;45487;-57
2023/01/07 01:32:07;;;;;;;;;5.00;4.00;;;;;-146.44;100.00;58906.56;5013096;28;53957;-57
2023/01/07 01:34:33;;;;;;;;;3.00;3.00;;;;;-146.44;100.00;58906.56;5015387;28;45517;-53
2023/01/07 01:36:58;;;;;;;;;2.67;2.67;;;;;-146.44;100.00;58906.56;5016514;28;45474;-52
2023/01/07 01:39:23;;;;;;;;;2.00;2.00;;;;;-146.44;100.00;58906.56;5016586;28;45690;-55
2023/01/07 01:41:49;;;;;;;;;3.00;3.00;;;;;-146.44;100.00;58906.56;5015286;28;45947;-57
2023/01/07 01:44:35;;;;;;;;;3.00;3.00;;;;;-146.44;100.00;58906.56;5014987;28;45460;-56
2023/01/07 01:47:04;;;;;;;;;2.00;2.00;;;;;-146.44;100.00;58906.56;5015404;28;45427;-55
2023/01/07 01:49:34;;;;;;;;;2.00;2.00;;;;;-146.44;100.00;58906.56;5016370;28;45432;-58
2023/01/07 01:52:05;;;;;;;;;2.00;2.00;;;;;-146.44;100.00;58906.56;5011798;28;45471;-56
2023/01/07 01:54:32;;;;;;;;;4.33;3.00;;;;;-146.44;100.00;58906.56;5008606;28;45395;-57
2023/01/07 01:57:01;;;;;;;;;2.00;2.00;;;;;-146.44;100.00;58906.56;5015348;28;45418;-54
2023/01/07 01:59:31;;;;;;;;;3.00;3.00;;;;;-146.44;100.00;58906.56;5015852;28;45371;-54
2023/01/07 02:01:56;;;;;;;;;3.00;3.00;;;;;-146.44;100.00;58906.56;5011685;28;45756;-55
2023/01/07 02:04:24;;;;;;;;;3.33;3.00;;;;;-146.44;100.00;58906.56;5015913;28;45471;-51
2023/01/07 02:06:56;;;;;;;;;3.00;3.00;;;;;-146.44;100.00;58906.56;5015626;28;45427;-54
2023/01/07 02:09:21;;;;;;;;;4.00;4.00;;;;;-146.44;100.00;58906.56;5015486;28;45553;-55
2023/01/07 02:12:02;;;;;;;;;2.67;2.67;;;;;-146.44;100.00;58906.56;5014779;28;45795;-56
2023/01/07 02:14:42;;;;;;;;;2.33;2.00;;;;;-146.44;100.00;58906.56;5015599;28;45444;-52
2023/01/07 02:17:29;;;;;;;;;3.00;3.00;;;;;-146.44;100.00;58906.56;5016023;28;45379;-56
2023/01/07 02:20:12;;;;;;;;;2.33;2.33;;;;;-146.44;100.00;58906.56;5015042;28;45532;-50
2023/01/07 02:22:46;;;;;;;;;4.00;4.00;;;;;-146.44;100.00;58906.56;5005615;28;45492;-54
2023/01/07 02:25:40;;;;;;;;;3.00;3.00;;;;;-146.44;100.00;58906.56;5014419;28;45422;-54
2023/01/07 02:28:08;;;;;;;;;2.00;2.00;;;;;-146.44;100.00;58906.56;5015167;28;45509;-53
2023/01/07 02:31:12;;;;;;;;;2.00;2.00;;;;;-146.44;100.00;58906.56;5014198;28;45476;-54
2023/01/07 02:33:46;;;;;;;;;3.00;3.00;;;;;-146.44;100.00;58906.56;4990416;28;46231;-55
2023/01/07 02:36:14;;;;;;;;;3.00;3.00;;;;;-146.44;100.00;58906.56;5014729;28;45447;-56
2023/01/07 02:39:06;;;;;;;;;3.00;3.00;;;;;-146.44;100.00;58906.56;5015686;28;45458;-55
2023/01/07 02:41:56;;;;;;;;;3.33;3.33;;;;;-146.44;100.00;58906.56;5014591;28;45415;-52
2023/01/07 02:44:36;;;;;;;;;2.00;2.00;;;;;-146.44;100.00;58906.56;5014360;28;45419;-54
2023/01/07 02:47:08;;;;;;;;;2.33;2.33;;;;;-146.44;100.00;58906.56;5018228;28;45520;-49
2023/01/07 02:49:34;;;;;;;;;3.00;3.00;;;;;-146.44;100.00;58906.56;5018153;28;45474;-53
2023/01/07 02:52:20;;;;;;;;;4.00;4.00;;;;;-146.44;100.00;58906.56;5018613;28;45444;-55
2023/01/07 02:54:57;;;;;;;;;4.00;2.00;;;;;-146.44;100.00;58906.56;5018263;28;45499;-55
2023/01/07 02:57:36;;;;;;;;;3.00;1.33;;;;;-146.44;100.00;58906.56;5019110;28;45580;-52
2023/01/07 03:00:04;;;;;;;;;2.00;2.00;;;;;-146.44;100.00;58906.56;5018973;28;45382;-58
2023/01/07 03:03:02;;;;;;;;;1.00;1.00;;;;;-146.44;100.00;58906.56;5016158;28;45521;-55
2023/01/07 03:06:03;;;;;;;;;2.00;2.00;;;;;-146.44;100.00;58906.56;5004724;28;46152;-58
2023/01/07 03:08:49;;;;;;;;;3.00;3.00;;;;;-146.44;100.00;58906.56;5001080;28;45373;-53
2023/01/07 03:11:18;;;;;;;;;2.00;2.00;;;;;-146.44;100.00;58906.56;5018962;28;45361;-51
2023/01/07 03:13:49;;;;;;;;;1.00;1.00;;;;;-146.44;100.00;58906.56;5017354;28;45529;-56
2023/01/07 03:16:24;;;;;;;;;1.00;1.00;;;;;-146.44;100.00;58906.56;5018393;28;45413;-54
2023/01/07 03:18:57;;;;;;;;;0.00;0.00;;;;;-146.44;100.00;58906.56;5009373;28;45368;-56
2023/01/07 03:21:26;;;;;;;;;1.67;1.67;;;;;-146.44;100.00;58906.56;5017717;28;45508;-58
2023/01/07 03:23:55;;;;;;;;;2.00;2.00;;;;;-146.44;100.00;58906.56;5018533;28;45509;-55
2023/01/07 03:26:25;;;;;;;;;2.33;2.33;;;;;-146.44;100.00;58906.56;5017484;28;45759;-54
2023/01/07 03:28:52;;;;;;;;;2.00;2.00;;;;;-146.44;100.00;58906.56;5018155;28;45400;-54
2023/01/07 03:31:20;;;;;;;;;1.00;1.00;;;;;-146.44;100.00;58906.56;5015410;28;45460;-52
2023/01/07 03:33:58;;;;;;;;;2.00;2.00;;;;;-146.44;100.00;58906.56;5017146;28;45506;-56
2023/01/07 03:36:33;;;;;;;;;1.00;1.00;;;;;-146.44;100.00;58906.56;5017371;28;45408;-52
2023/01/07 03:38:58;;;;;;;;;2.00;2.00;;;;;-146.44;100.00;58906.56;5017495;28;45735;-53
2023/01/07 03:44:08;;;;;;;;;1.00;1.00;;;;;-146.44;100.00;58906.56;5018280;28;45459;-55
2023/01/07 03:46:35;;;;;;;;;1.00;1.00;;;;;-146.44;100.00;58906.56;5016648;28;46970;-52
2023/01/07 03:49:00;;;;;;;;;2.00;2.00;;;;;-146.44;100.00;58906.56;5018254;28;45427;-56
2023/01/07 03:51:25;;;;;;;;;2.00;0.67;;;;;-146.44;100.00;58906.56;5017349;28;45507;-55
2023/01/07 03:53:50;;;;;;;;;1.00;1.00;;;;;-146.44;100.00;58906.56;5017764;28;45451;-55
2023/01/07 03:56:16;;;;;;;;;2.00;2.00;;;;;-146.44;100.00;58906.56;5002880;28;45487;-58
2023/01/07 03:58:41;;;;;;;;;0.33;0.33;;;;;-146.44;100.00;58906.56;5017126;28;45383;-50
2023/01/07 04:01:07;;;;;;;;;4.33;1.33;;;;;-146.44;100.00;58906.56;5015646;28;45515;-54
2023/01/07 04:03:32;;;;;;;;;4.67;3.00;;;;;-146.44;100.00;58906.56;5017502;28;45472;-54
2023/01/07 04:05:58;;;;;;;;;0.33;0.33;;;;;-146.44;100.00;58906.56;5018129;28;45498;-56
2023/01/07 04:08:23;;;;;;;;;1.00;1.00;;;;;-146.44;100.00;58906.56;5015917;28;45425;-55
2023/01/07 04:10:48;;;;;;;;;2.00;2.00;;;;;-146.44;100.00;58906.56;5016828;28;45418;-53
2023/01/07 04:13:13;;;;;;;;;1.00;1.00;;;;;-146.44;100.00;58906.56;5017259;28;48505;-56
2023/01/07 04:15:40;;;;;;;;;1.67;1.67;;;;;-146.44;100.00;58906.56;5016759;28;46504;-53
2023/01/07 04:18:05;;;;;;;;;1.00;1.00;;;;;-146.44;100.00;58906.56;5017868;28;45443;-56
2023/01/07 04:20:31;;;;;;;;;1.00;1.00;;;;;-146.44;100.00;58906.56;5016693;28;45309;-52
2023/01/07 04:22:56;;;;;;;;;2.00;2.00;;;;;-146.44;100.00;58906.56;5014645;28;45414;-50
2023/01/07 04:25:21;;;;;;;;;1.00;1.00;;;;;-146.44;100.00;58906.56;5016883;28;45369;-52
2023/01/07 04:27:47;;;;;;;;;2.33;2.00;;;;;-146.44;100.00;58906.56;5016689;28;45467;-51
2023/01/07 04:30:12;;;;;;;;;1.00;1.00;;;;;-146.44;100.00;58906.56;5012960;28;45877;-53
2023/01/07 04:32:37;;;;;;;;;1.00;1.00;;;;;-146.44;100.00;58906.56;5016894;28;45496;-52
2023/01/07 04:35:03;;;;;;;;;1.33;1.33;;;;;-146.44;100.00;58906.56;5017250;28;45477;-55
2023/01/07 04:37:28;;;;;;;;;2.00;2.00;;;;;-146.44;100.00;58906.56;5016976;28;45514;-50
2023/01/07 04:39:54;;;;;;;;;2.00;2.00;;;;;-146.44;100.00;58906.56;5016691;28;45443;-51
2023/01/07 04:42:19;;;;;;;;;2.00;2.00;;;;;-146.44;100.00;58906.56;5012650;28;50959;-54
2023/01/07 04:44:44;;;;;;;;;1.67;1.67;;;;;-146.44;100.00;58906.56;5006436;28;45349;-55
2023/01/07 04:47:10;;;;;;;;;1.00;1.00;;;;;-146.44;100.00;58906.56;5015730;28;45524;-53
2023/01/07 04:49:35;;;;;;;;;3.00;3.00;;;;;-146.44;100.00;58906.56;5016924;28;45589;-52
2023/01/07 04:52:01;;;;;;;;;2.00;2.00;;;;;-146.44;100.00;58906.56;5009601;28;48586;-54
2023/01/07 04:54:27;;;;;;;;;3.00;3.00;;;;;-146.44;100.00;58906.56;5015055;28;45439;-52
2023/01/07 04:56:52;;;;;;;;;3.00;3.00;;;;;-146.44;100.00;58906.56;5016975;28;51338;-52
2023/01/07 04:59:17;;;;;;;;;2.00;2.00;;;;;-146.44;100.00;58906.56;5015639;28;45613;-56
2023/01/07 05:01:42;;;;;;;;;3.00;3.00;;;;;-146.44;100.00;58906.56;5014853;28;45554;-54
2023/01/07 05:04:08;;;;;;;;;3.00;3.00;;;;;-146.44;100.00;58906.56;5015967;28;45545;-54
2023/01/07 05:06:33;;;;;;;;;3.00;3.00;;;;;-146.44;100.00;58906.56;5014606;28;45434;-52
2023/01/07 05:08:58;;;;;;;;;2.33;2.33;;;;;-146.44;100.00;58906.56;5003196;28;45532;-56
2023/01/07 05:11:24;;;;;;;;;4.00;3.67;;;;;-146.44;100.00;58906.56;5015158;28;45486;-56
2023/01/07 05:13:49;;;;;;;;;2.00;2.00;;;;;-146.44;100.00;58906.56;5014801;28;45544;-55
2023/01/07 05:16:15;;;;;;;;;5.00;2.00;;;;;-146.44;100.00;58906.56;5015208;28;45431;-55
2023/01/07 05:18:40;;;;;;;;;6.00;4.00;;;;;-146.44;100.00;58906.56;5016621;28;45462;-56
2023/01/07 05:21:05;;;;;;;;;4.67;4.67;;;;;-146.44;100.00;58906.56;5014275;28;45549;-52
2023/01/07 05:23:31;;;;;;;;;3.67;3.67;;;;;-146.44;100.00;58906.56;5015099;28;47225;-50
2023/01/07 05:25:56;;;;;;;;;4.00;4.00;;;;;-146.44;100.00;58906.56;5015974;28;45467;-58
2023/01/07 05:28:21;;;;;;;;;5.00;5.00;;;;;-146.44;100.00;58906.56;5015800;28;45328;-54
2023/01/07 05:30:47;;;;;;;;;3.00;3.00;;;;;-146.44;100.00;58906.56;5014699;28;45333;-51
2023/01/07 05:33:12;;;;;;;;;4.00;4.00;;;;;-146.44;100.00;58906.56;5015592;28;45491;-56
2023/01/07 05:35:37;;;;;;;;;5.00;5.00;;;;;-146.44;100.00;58906.56;5014877;28;45443;-56
2023/01/07 05:38:03;;;;;;;;;5.33;5.00;;;;;-146.44;100.00;58906.56;5016719;28;45516;-52
2023/01/07 05:40:29;;;;;;;;;5.00;5.00;;;;;-146.44;100.00;58906.56;5014075;28;45629;-55
2023/01/07 05:42:54;;;;;;;;;4.00;4.00;;;;;-146.44;100.00;58906.56;5015242;28;53097;-55
2023/01/07 05:45:22;;;;;;;;;3.33;3.33;;;;;-146.44;100.00;58906.56;5016427;28;45472;-55
2023/01/07 05:47:48;;;;;;;;;3.00;3.00;;;;;-146.44;100.00;58906.56;4996915;28;45429;-54
2023/01/07 05:50:13;;;;;;;;;5.00;5.00;;;;;-146.44;100.00;58906.56;5005794;28;45482;-58
2023/01/07 05:52:38;;;;;;;;;6.00;4.00;;;;;-146.44;100.00;58906.56;5016079;28;46037;-57
2023/01/07 05:55:05;;;;;;;;;4.00;4.00;;;;;-146.44;100.00;58906.56;5015786;28;45470;-53
2023/01/07 05:57:31;;;;;;;;;3.00;3.00;;;;;-146.44;100.00;58906.56;5015570;28;45597;-55
2023/01/07 05:59:57;;;;;;;;;3.67;3.67;;;;;-146.44;100.00;58906.56;5014167;28;45729;-53
2023/01/07 06:02:22;;;;;;;;;5.00;4.00;;;;;-146.44;100.00;58906.56;5012898;28;46101;-58
2023/01/07 06:04:48;;;;;;;;;5.67;4.33;;;;;-146.44;100.00;58906.56;5012919;28;46312;-53
2023/01/07 06:07:13;;;;;;;;;3.67;3.67;;;;;-146.44;100.00;58906.56;5015556;28;45378;-55
2023/01/07 06:09:38;;;;;;;;;5.00;4.00;;;;;-146.44;100.00;58906.56;5015984;28;45526;-56
2023/01/07 06:12:04;;;;;;;;;3.00;3.00;;;;;-146.44;100.00;58906.56;5013971;28;45936;-54
2023/01/07 06:14:29;;;;;;;;;7.00;5.00;;;;;-146.44;100.00;58906.56;5016078;28;45455;-53
2023/01/07 06:16:54;;;;;;;;;3.67;3.67;;;;;-146.44;100.00;58906.56;5015687;28;45407;-53
2023/01/07 06:19:21;;;;;;;;;3.33;3.33;;;;;-146.44;100.00;58906.56;5014995;28;45522;-53
2023/01/07 06:21:47;;;;;;;;;4.00;4.00;;;;;-146.44;100.00;58906.56;5014434;28;46060;-54
2023/01/07 06:24:12;;;;;;;;;11.00;6.00;;;;;-146.44;100.00;58906.56;5014492;28;45514;-56
2023/01/07 06:26:38;;;;;;;;;6.33;4.33;;;;;-146.44;100.00;58906.56;5015278;28;45510;-52
2023/01/07 06:29:03;;;;;;;;;4.33;3.33;;;;;-146.44;100.00;58906.56;5016062;28;45486;-51
2023/01/07 06:31:28;;;;;;;;;3.67;3.67;;;;;-146.44;100.00;58906.56;5012852;28;46335;-55
2023/01/07 06:33:53;;;;;;;;;3.33;3.33;;;;;-146.44;100.00;58906.56;5013059;28;45427;-56
2023/01/07 06:36:19;;;;;;;;;5.00;5.00;;;;;-146.44;100.00;58906.56;5016049;28;45513;-53
2023/01/07 06:38:44;;;;;;;;;7.00;4.67;;;;;-146.44;100.00;58906.56;5013799;28;45562;-53
2023/01/07 06:41:10;;;;;;;;;7.00;5.00;;;;;-146.44;100.00;58906.56;5014452;28;47621;-54
2023/01/07 06:43:35;;;;;;;;;4.00;4.00;;;;;-146.44;100.00;58906.56;5013830;28;45467;-54
2023/01/07 06:46:01;;;;;;;;;3.67;3.67;;;;;-146.44;100.00;58906.56;5013233;28;45521;-55
2023/01/07 06:48:26;;;;;;;;;5.67;4.33;;;;;-146.44;100.00;58906.56;5014878;28;45541;-53
2023/01/07 06:50:51;;;;;;;;;8.00;7.00;;;;;-146.44;100.00;58906.56;5013846;28;45458;-54
2023/01/07 06:53:16;;;;;;;;;5.00;5.00;;;;;-146.44;100.00;58906.56;5014202;28;45648;-58
2023/01/07 06:55:49;;;;;;;;;5.00;5.00;;;;;-146.44;100.00;58906.56;5015443;28;45297;-55
2023/01/07 06:58:15;;;;;;;;;4.33;4.00;;;;;-146.44;100.00;58906.56;5013416;28;45503;-54
2023/01/07 07:00:41;;;;;;;;;3.33;3.33;;;;;-146.44;100.00;58906.56;5013397;28;46284;-54
2023/01/07 07:03:06;;;;;;;;;5.33;5.33;;;;;-146.44;100.00;58906.56;5015609;28;45491;-55
2023/01/07 07:05:33;;;;;;;;;8.33;7.00;;;;;-146.44;100.00;58906.56;5007801;28;45390;-55
2023/01/07 07:07:59;;;;;;;;;4.67;3.33;;;;;-146.44;100.00;58906.56;5013540;28;45369;-54
2023/01/07 07:10:25;;;;;;;;;6.33;4.67;;;;;-146.44;100.00;58906.56;5015251;28;45376;-55
2023/01/07 07:12:50;;;;;;;;;2.67;2.67;;;;;-146.44;100.00;58906.56;5013172;28;45531;-54
2023/01/07 07:15:16;;;;;;;;;6.33;4.00;;;;;-146.44;100.00;58906.56;5014861;28;45455;-55
2023/01/07 07:17:41;;;;;;;;;7.00;6.00;;;;;-146.44;100.00;58906.56;5014595;28;45458;-55
2023/01/07 07:20:07;;;;;;;;;3.67;3.67;;;;;-146.44;100.00;58906.56;5014298;28;53026;-55
2023/01/07 07:22:32;;;;;;;;;2.00;2.00;;;;;-146.44;100.00;58906.56;5013200;28;45421;-56
2023/01/07 07:24:57;;;;;;;;;3.00;3.00;;;;;-146.44;100.00;58906.56;5014006;28;45830;-55
2023/01/07 07:27:23;;;;;;;;;4.33;4.33;;;;;-146.44;100.00;58906.56;5012877;28;45582;-54
2023/01/07 07:29:48;;;;;;;;;2.67;2.67;;;;;-146.44;100.00;58906.56;5013553;28;45882;-57
2023/01/07 07:34:08;;;;;;;;;5.00;5.00;;;;;10.75;64.20;100463.47;5068238;27;45434;-54
2023/01/07 07:36:45;;;;;;;;;3.33;3.33;;;;;10.70;64.73;100459.31;5069609;28;45438;-57
2023/01/07 07:39:10;;;;;;;;;4.00;4.00;;;;;10.79;63.84;100456.31;5059818;28;45667;-56
2023/01/07 07:41:36;;;;;;;;;4.33;4.33;;;;;10.78;63.94;100455.47;5045153;28;45482;-53
2023/01/07 07:44:01;;;;;;;;;4.00;4.00;;;;;10.78;63.88;100439.69;5052354;28;45402;-55
2023/01/07 07:46:26;;;;;;;;;6.00;4.00;;;;;10.78;63.38;100444.09;5066234;28;46914;-50
2023/01/07 07:48:52;;;;;;;;;5.67;2.00;;;;;10.77;63.45;100451.13;5053938;28;45481;-55
2023/01/07 07:51:18;;;;;;;;;1.67;1.67;;;;;10.67;64.08;100433.97;5062888;28;45909;-60
2023/01/07 07:53:43;;;;;;;;;7.00;6.00;;;;;10.66;64.30;100437.50;5064141;27;45348;-56
2023/01/07 07:56:08;;;;;;;;;4.00;4.00;;;;;10.68;64.08;100442.72;5052991;27;45453;-56
2023/01/07 07:58:34;;;;;;;;;4.67;4.67;;;;;10.71;63.82;100448.72;5060134;27;45446;-52
2023/01/07 08:00:59;;;;;;;;;6.00;6.00;;;;;10.71;64.21;100445.22;5052832;28;46142;-55
2023/01/07 08:03:24;;;;;;;;;5.67;5.00;;;;;10.70;63.30;100444.38;5066326;28;45489;-50
2023/01/07 08:05:50;;;;;;;;;4.67;4.67;;;;;10.67;63.55;100444.50;5063179;28;45477;-56
2023/01/07 08:08:15;;;;;;;;;6.33;4.67;;;;;10.63;63.58;100435.00;5059481;28;45472;-56
2023/01/07 08:10:41;;;;;;;;;3.00;3.00;;;;;10.68;63.03;100429.56;5062680;28;45458;-56
2023/01/07 08:13:06;;;;;;;;;2.00;2.00;;;;;10.64;63.08;100426.22;5055639;27;45442;-57
2023/01/07 08:15:31;;;;;;;;;5.00;5.00;;;;;10.62;63.36;100433.28;5062539;27;45403;-55
2023/01/07 08:17:59;;;;;;;;;6.00;4.67;;;;;10.58;63.95;100431.69;5055062;27;45402;-53
2023/01/07 08:20:25;;;;;;;;;2.00;2.00;;;;;10.58;63.69;100429.91;5058533;28;45484;-54
2023/01/07 08:22:50;;;;;;;;;4.67;4.67;;;;;10.53;63.82;100428.38;5066378;27;45476;-57
2023/01/07 08:25:16;;;;;;;;;7.00;3.33;;;;;10.53;63.43;100436.25;5049742;28;45462;-57
2023/01/07 08:27:41;;;;;;;;;5.00;5.00;;;;;10.57;64.01;100440.50;5034525;28;45437;-57
2023/01/07 08:30:07;;;;;;;;;4.33;2.67;;;;;10.57;63.39;100429.97;5040611;28;45604;-55
2023/01/07 08:32:32;;;;;;;;;5.00;5.00;;;;;10.45;63.28;100409.41;5037274;28;45613;-57
2023/01/07 08:34:57;;;;;;;;;4.33;4.33;;;;;10.49;63.51;100417.13;5052238;28;52006;-54
2023/01/07 08:37:23;;;;;;;;;4.00;3.00;;;;;10.52;63.62;100416.16;5070248;28;45371;-54
2023/01/07 08:39:48;;;;;;;;;5.67;5.67;;;;;10.51;63.15;100398.66;5071772;28;45355;-54
2023/01/07 08:42:13;;;;;;;;;5.00;5.00;;;;;10.55;63.54;100400.25;5056768;28;45526;-54
2023/01/07 08:44:39;;;;;;;;;6.00;5.00;;;;;10.59;63.24;100388.72;5060126;28;48344;-55
2023/01/07 08:47:04;;;;;;;;;6.00;6.00;;;;;10.57;63.50;100388.75;5063678;28;53925;-50
2023/01/07 08:49:30;;;;;;;;;4.00;4.00;;;;;10.61;64.00;100394.75;5054832;28;45567;-58
2023/01/07 08:51:55;;;;;;;;;8.00;6.33;;;;;10.59;63.20;100386.09;5046225;28;45570;-52
2023/01/07 08:54:21;;;;;;;;;4.00;4.00;;;;;10.58;63.85;100377.31;5049441;28;46317;-53
2023/01/07 08:56:46;;;;;;;;;7.00;7.00;;;;;10.58;63.24;100365.94;5043116;28;48966;-52
2023/01/07 08:59:11;;;;;;;;;8.33;6.33;;;;;10.58;63.76;100358.91;5045949;28;45494;-51
2023/01/07 09:01:36;;;;;;;;;3.33;3.33;;;;;10.63;62.92;100366.63;5057994;28;45636;-53
2023/01/07 09:04:02;;;;;;;;;7.67;4.00;;;;;10.60;63.47;100364.13;5056379;28;51005;-56
2023/01/07 09:06:27;;;;;;;;;5.67;4.00;;;;;10.57;63.77;100351.09;5050124;28;45682;-55
2023/01/07 09:08:52;;;;;;;;;6.00;5.67;;;;;10.63;63.88;100360.50;5045264;28;45418;-50
2023/01/07 09:11:18;;;;;;;;;7.00;7.00;;;;;10.61;63.65;100345.66;5054852;28;45511;-57
2023/01/07 09:13:43;;;;;;;;;7.00;7.00;;;;;10.71;63.86;100355.81;5049754;28;45563;-48
2023/01/07 09:16:09;;;;;;;;;5.67;5.67;;;;;10.72;63.35;100339.97;5057544;28;45427;-56
2023/01/07 09:18:34;;;;;;;;;7.67;7.00;;;;;10.72;62.82;100334.72;5057688;28;45470;-51
2023/01/07 09:21:00;;;;;;;;;8.00;7.33;;;;;10.67;63.34;100322.66;5057521;28;45375;-55
2023/01/07 09:23:25;;;;;;;;;4.00;4.00;;;;;10.69;62.76;100321.66;5057365;28;46498;-56
2023/01/07 09:25:50;;;;;;;;;7.00;4.00;;;;;10.70;63.24;100318.13;5057318;28;45444;-56
2023/01/07 09:28:16;;;;;;;;;7.00;7.00;;;;;10.69;63.46;100318.19;5041833;28;45475;-57
2023/01/07 09:30:41;;;;;;;;;7.00;6.67;;;;;10.70;62.99;100310.25;5047996;28;45671;-50
2023/01/07 09:33:06;;;;;;;;;6.67;6.00;;;;;10.71;63.21;100301.41;5057275;28;45431;-55
2023/01/07 09:35:32;;;;;;;;;7.67;7.67;;;;;10.73;63.28;100299.59;5057095;28;45458;-56
2023/01/07 09:37:57;;;;;;;;;7.00;7.00;;;;;10.74;62.98;100297.81;5057424;28;45489;-56
2023/01/07 09:40:31;;;;;;;;;7.67;7.67;;;;;10.73;63.49;100291.69;5030457;28;45367;-60
2023/01/07 09:43:06;;;;;;;;;7.00;6.00;;;;;10.78;63.20;100283.63;5045265;28;46196;-56
2023/01/07 09:45:36;;;;;;;;;4.00;4.00;;;;;10.83;63.15;100285.16;5052622;28;45345;-50
2023/01/07 09:48:32;;;;;;;;;9.00;8.00;;;;;10.92;63.52;100290.94;5057408;28;45417;-51
2023/01/07 09:51:11;;;;;;;;;6.00;6.00;;;;;10.90;62.52;100274.34;5053827;28;45442;-57
2023/01/07 09:53:45;;;;;;;;;7.33;7.00;;;;;10.93;62.71;100271.59;5057155;28;45470;-53
2023/01/07 09:56:21;;;;;;;;;6.33;6.33;;;;;11.00;63.25;100270.41;5056556;28;45430;-58
2023/01/07 09:58:47;;;;;;;;;7.33;7.00;;;;;11.02;62.24;100272.06;5047258;28;45430;-55
2023/01/07 10:01:18;;;;;;;;;4.00;4.00;;;;;11.06;62.22;100275.41;5049902;28;45541;-54
2023/01/07 10:03:59;;;;;;;;;6.67;6.67;;;;;11.08;62.30;100276.22;5039564;28;46115;-55
2023/01/07 10:06:55;;;;;;;;;7.33;5.33;;;;;11.10;62.44;100269.13;5043447;28;45408;-51
2023/01/07 10:09:21;;;;;;;;;6.00;6.00;;;;;11.11;62.42;100262.06;5048942;28;45412;-54
2023/01/07 10:12:07;;;;;;;;;7.00;6.33;;;;;11.13;62.12;100263.72;5047612;28;45610;-54
2023/01/07 10:14:47;;;;;;;;;10.67;10.67;;;;;11.16;61.48;100268.84;5034706;28;45476;-47
2023/01/07 10:17:20;;;;;;;;;6.33;6.00;;;;;11.14;61.59;100268.06;5056552;28;45501;-51
2023/01/07 10:20:06;;;;;;;;;7.67;6.00;;;;;11.14;61.90;100259.31;5046990;28;45583;-54
2023/01/07 10:22:38;;;;;;;;;3.00;3.00;;;;;11.17;62.46;100261.81;5044819;28;45474;-49
2023/01/07 10:25:13;;;;;;;;;4.67;4.67;;;;;11.18;61.43;100260.91;5038797;28;46200;-54
2023/01/07 10:27:41;;;;;;;;;1.00;1.00;;;;;11.08;61.08;100249.03;5056775;28;45439;-52
2023/01/07 10:30:14;;;;;;;;;2.33;1.00;;;;;11.10;62.21;100247.22;5055483;28;45455;-56
2023/01/07 10:32:40;;;;;;;;;5.33;4.67;;;;;11.07;61.58;100235.03;5056689;28;45461;-51
2023/01/07 10:35:13;;;;;;;;;3.33;3.33;;;;;11.12;62.21;100233.03;5033152;28;47167;-52
2023/01/07 10:37:41;;;;;;;;;7.00;7.00;;;;;11.18;60.86;100229.31;5025721;28;45471;-55
2023/01/07 10:40:21;;;;;;;;;4.67;4.67;;;;;11.19;61.40;100233.63;5036258;28;45436;-54
2023/01/07 10:43:15;;;;;;;;;6.00;3.67;;;;;11.22;60.86;100218.56;5023323;28;45408;-54
2023/01/07 10:45:56;;;;;;;;;6.67;3.33;;;;;11.16;61.21;100228.50;5008434;28;45514;-50
2023/01/07 10:48:40;;;;;;;;;4.00;4.00;;;;;11.20;61.20;100215.16;5036203;28;45454;-55
2023/01/07 10:51:15;;;;;;;;;4.00;4.00;;;;;11.21;61.48;100208.97;5030721;28;45469;-54
2023/01/07 10:54:12;;;;;;;;;5.67;3.67;;;;;11.20;61.83;100209.91;5034726;28;45592;-57
2023/01/07 10:56:46;;;;;;;;;6.33;6.33;;;;;11.22;61.65;100196.66;5022024;28;46399;-56
2023/01/07 10:59:18;;;;;;;;;5.67;5.67;;;;;11.23;60.80;100201.84;5025529;28;45495;-54
2023/01/07 11:01:49;;;;;;;;;8.33;5.67;;;;;11.27;60.88;100192.88;5036241;28;45450;-55
2023/01/07 11:04:15;;;;;;;;;5.33;5.33;;;;;11.31;61.67;100191.00;5031752;28;45423;-54
2023/01/07 11:06:57;;;;;;;;;4.67;4.67;;;;;11.31;60.90;100200.63;5025522;28;46161;-51
2023/01/07 11:09:39;;;;;;;;;4.00;4.00;;;;;11.30;60.81;100180.50;5035583;28;45427;-59
2023/01/07 11:12:41;;;;;;;;;4.00;4.00;;;;;11.27;61.58;100176.25;5035325;28;45515;-57
2023/01/07 11:15:22;;;;;;;;;6.67;4.00;;;;;11.28;60.68;100159.50;5026765;28;45513;-50
2023/01/07 11:18:08;;;;;;;;;4.00;4.00;;;;;11.24;61.10;100147.44;5034548;28;47338;-51
2023/01/07 11:20:55;;;;;;;;;4.33;4.33;;;;;11.27;61.33;100137.59;5029660;28;45634;-63
2023/01/07 11:23:40;;;;;;;;;6.00;6.00;;;;;11.28;60.95;100144.59;5024977;28;45453;-58
2023/01/07 11:26:12;;;;;;;;;3.00;3.00;;;;;11.34;61.04;100147.84;5024816;28;45454;-59
2023/01/07 11:29:00;;;;;;;;;6.00;4.00;;;;;11.36;59.89;100133.69;5022251;28;45968;-59